createdAt,value
2017-11-21T00:00:46.222Z,96.97
2017-11-21T00:01:46.213Z,96.31
2017-11-21T00:02:46.202Z,96.97
2017-11-21T00:03:46.203Z,96.59
2017-11-21T00:04:46.178Z,96.97
2017-11-21T00:05:46.169Z,96.97
2017-11-21T00:06:45.902Z,97.83
2017-11-21T00:07:46.151Z,98.21
2017-11-21T00:08:46.141Z,98.11
2017-11-21T00:09:46.130Z,98.02
2017-11-21T00:10:45.863Z,98.4
2017-11-21T00:11:45.852Z,98.35
2017-11-21T00:12:46.097Z,98.4
2017-11-21T00:13:45.832Z,98.87
2017-11-21T00:14:46.076Z,98.59
2017-11-21T00:15:46.069Z,98.49
2017-11-21T00:16:46.068Z,98.59
2017-11-21T00:17:46.050Z,98.87
2017-11-21T00:18:46.039Z,99.54
2017-11-21T00:19:45.769Z,99.35
2017-11-21T00:20:46.015Z,99.63
2017-11-21T00:21:45.750Z,99.26
2017-11-21T00:22:45.996Z,99.73
2017-11-21T00:23:45.726Z,99.91
2017-11-21T00:24:45.718Z,99.82
2017-11-21T00:25:45.965Z,99.96
2017-11-21T00:26:45.839Z,99.87
2017-11-21T00:27:45.940Z,99.99
2017-11-21T00:28:45.677Z,99.99
2017-11-21T00:29:45.665Z,99.99
2017-11-21T00:30:45.915Z,99.99
2017-11-21T00:31:45.938Z,99.99
2017-11-21T00:32:45.991Z,99.99
2017-11-21T00:33:45.881Z,99.99
2017-11-21T00:34:45.871Z,99.99
2017-11-21T00:35:45.864Z,99.99
2017-11-21T00:36:45.593Z,99.99
2017-11-21T00:37:45.941Z,99.99
2017-11-21T00:38:45.574Z,99.99
2017-11-21T00:39:45.563Z,99.99
2017-11-21T00:40:45.809Z,99.99
2017-11-21T00:41:45.797Z,99.99
2017-11-21T00:42:45.534Z,99.99
2017-11-21T00:43:45.522Z,99.99
2017-11-21T00:44:45.510Z,99.99
2017-11-21T00:45:45.508Z,99.99
2017-11-21T00:46:45.591Z,99.99
2017-11-21T00:47:45.743Z,99.99
2017-11-21T00:48:45.469Z,99.99
2017-11-21T00:49:45.715Z,99.99
2017-11-21T00:50:45.704Z,99.99
2017-11-21T00:51:45.701Z,99.99
2017-11-21T00:52:45.690Z,99.99
2017-11-21T00:53:45.678Z,99.99
2017-11-21T00:54:45.762Z,99.99
2017-11-21T00:55:45.398Z,99.99
2017-11-21T00:56:45.644Z,99.99
2017-11-21T00:57:45.377Z,99.99
2017-11-21T00:58:45.627Z,99.99
2017-11-21T00:59:45.609Z,99.99
2017-11-21T01:00:45.604Z,99.99
2017-11-21T01:01:45.590Z,99.99
2017-11-21T01:02:45.581Z,99.99
2017-11-21T01:03:45.571Z,99.99
2017-11-21T01:04:45.570Z,99.99
2017-11-21T01:05:45.561Z,99.99
2017-11-21T01:06:45.540Z,99.99
2017-11-21T01:07:45.528Z,99.99
2017-11-21T01:08:45.263Z,99.99
2017-11-21T01:09:45.512Z,99.99
2017-11-21T01:10:45.496Z,99.99
2017-11-21T01:11:45.231Z,99.99
2017-11-21T01:12:45.480Z,99.99
2017-11-21T01:13:45.470Z,99.99
2017-11-21T01:14:45.458Z,99.99
2017-11-21T01:15:45.447Z,99.99
2017-11-21T01:16:45.435Z,99.99
2017-11-21T01:17:45.425Z,99.99
2017-11-21T01:18:45.419Z,99.99
2017-11-21T01:19:45.415Z,99.99
2017-11-21T01:20:45.238Z,99.99
2017-11-21T01:21:45.386Z,99.99
2017-11-21T01:22:45.372Z,99.99
2017-11-21T01:23:45.108Z,99.99
2017-11-21T01:24:45.356Z,99.99
2017-11-21T01:25:45.340Z,99.99
2017-11-21T01:26:45.077Z,99.99
2017-11-21T01:27:45.330Z,99.99
2017-11-21T01:28:45.313Z,99.99
2017-11-21T01:29:45.311Z,99.99
2017-11-21T01:30:45.292Z,99.99
2017-11-21T01:31:45.280Z,99.99
2017-11-21T01:32:45.272Z,99.99
2017-11-21T01:33:45.003Z,99.99
2017-11-21T01:34:45.248Z,99.99
2017-11-21T01:35:45.242Z,99.99
2017-11-21T01:36:45.229Z,99.99
2017-11-21T01:37:45.320Z,99.99
2017-11-21T01:38:44.962Z,99.99
2017-11-21T01:39:45.203Z,99.99
2017-11-21T01:40:45.192Z,99.99
2017-11-21T01:41:45.178Z,99.99
2017-11-21T01:42:45.175Z,99.99
2017-11-21T01:43:44.905Z,99.99
2017-11-21T01:44:45.152Z,99.99
2017-11-21T01:45:44.983Z,99.99
2017-11-21T01:46:45.143Z,99.99
2017-11-21T01:47:45.134Z,99.99
2017-11-21T01:48:45.112Z,99.99
2017-11-21T01:49:44.838Z,99.99
2017-11-21T01:50:45.087Z,99.99
2017-11-21T01:51:45.078Z,99.99
2017-11-21T01:52:45.073Z,99.99
2017-11-21T01:53:44.803Z,99.99
2017-11-21T01:54:45.052Z,99.99
2017-11-21T01:55:45.042Z,99.99
2017-11-21T01:56:44.766Z,99.99
2017-11-21T01:57:44.758Z,99.99
2017-11-21T01:58:44.745Z,99.99
2017-11-21T01:59:44.736Z,99.99
2017-11-21T02:00:44.991Z,99.99
2017-11-21T02:01:44.718Z,99.99
2017-11-21T02:02:44.966Z,99.99
2017-11-21T02:03:44.949Z,99.99
2017-11-21T02:04:44.939Z,99.99
2017-11-21T02:05:44.675Z,99.99
2017-11-21T02:06:44.920Z,99.99
2017-11-21T02:07:44.924Z,99.99
2017-11-21T02:08:44.643Z,99.99
2017-11-21T02:09:44.734Z,99.99
2017-11-21T02:10:44.980Z,99.99
2017-11-21T02:11:44.870Z,99.99
2017-11-21T02:12:44.601Z,99.99
2017-11-21T02:13:44.849Z,99.99
2017-11-21T02:14:44.583Z,99.99
2017-11-21T02:15:44.830Z,99.99
2017-11-21T02:16:44.828Z,99.99
2017-11-21T02:17:44.552Z,99.99
2017-11-21T02:18:44.797Z,99.99
2017-11-21T02:19:44.786Z,99.99
2017-11-21T02:20:44.516Z,99.99
2017-11-21T02:21:44.510Z,99.99
2017-11-21T02:22:44.502Z,99.99
2017-11-21T02:23:44.745Z,99.99
2017-11-21T02:24:44.740Z,99.99
2017-11-21T02:25:44.731Z,99.99
2017-11-21T02:26:44.721Z,99.99
2017-11-21T02:27:44.707Z,99.99
2017-11-21T02:28:44.705Z,99.99
2017-11-21T02:29:44.426Z,99.99
2017-11-21T02:30:44.671Z,99.99
2017-11-21T02:31:44.662Z,99.99
2017-11-21T02:32:44.657Z,99.99
2017-11-21T02:33:44.662Z,99.99
2017-11-21T02:34:44.374Z,99.99
2017-11-21T02:35:44.625Z,99.99
2017-11-21T02:36:44.607Z,99.99
2017-11-21T02:37:44.600Z,99.99
2017-11-21T02:38:44.590Z,99.99
2017-11-21T02:39:44.579Z,99.99
2017-11-21T02:40:44.674Z,99.99
2017-11-21T02:41:44.309Z,99.99
2017-11-21T02:42:44.289Z,99.99
2017-11-21T02:43:44.281Z,99.99
2017-11-21T02:44:44.270Z,99.99
2017-11-21T02:45:44.514Z,99.99
2017-11-21T02:46:44.513Z,99.99
2017-11-21T02:47:44.500Z,99.99
2017-11-21T02:48:44.491Z,99.99
2017-11-21T02:49:44.476Z,99.99
2017-11-21T02:50:44.462Z,99.99
2017-11-21T02:51:44.451Z,99.99
2017-11-21T02:52:44.469Z,99.99
2017-11-21T02:53:44.437Z,99.99
2017-11-21T02:54:44.439Z,99.99
2017-11-21T02:55:44.414Z,99.99
2017-11-21T02:56:44.418Z,99.99
2017-11-21T02:57:44.423Z,99.99
2017-11-21T02:58:44.126Z,99.99
2017-11-21T02:59:44.381Z,99.99
2017-11-21T03:00:44.359Z,99.99
2017-11-21T03:01:44.358Z,99.99
2017-11-21T03:02:44.344Z,99.99
2017-11-21T03:03:44.330Z,99.99
2017-11-21T03:04:44.063Z,99.99
2017-11-21T03:05:44.310Z,99.99
2017-11-21T03:06:44.045Z,99.99
2017-11-21T03:07:44.299Z,99.99
2017-11-21T03:08:44.283Z,99.99
2017-11-21T03:09:44.269Z,99.99
2017-11-21T03:10:44.002Z,99.99
2017-11-21T03:11:43.995Z,99.99
2017-11-21T03:12:44.243Z,99.99
2017-11-21T03:13:44.234Z,99.99
2017-11-21T03:14:44.226Z,99.99
2017-11-21T03:15:44.207Z,99.99
2017-11-21T03:16:43.942Z,99.99
2017-11-21T03:17:44.187Z,99.99
2017-11-21T03:18:43.922Z,99.99
2017-11-21T03:19:44.167Z,99.99
2017-11-21T03:20:44.161Z,99.99
2017-11-21T03:21:44.145Z,99.99
2017-11-21T03:22:44.150Z,99.99
2017-11-21T03:23:43.869Z,99.99
2017-11-21T03:24:44.123Z,99.99
2017-11-21T03:25:44.104Z,99.99
2017-11-21T03:26:44.094Z,99.99
2017-11-21T03:27:44.086Z,99.99
2017-11-21T03:28:44.076Z,99.99
2017-11-21T03:29:44.065Z,99.99
2017-11-21T03:30:44.056Z,99.99
2017-11-21T03:31:44.045Z,99.99
2017-11-21T03:32:43.780Z,99.99
2017-11-21T03:33:44.032Z,99.99
2017-11-21T03:34:44.024Z,99.99
2017-11-21T03:35:43.747Z,99.99
2017-11-21T03:36:44.089Z,99.99
2017-11-21T03:37:43.981Z,99.99
2017-11-21T03:38:43.972Z,99.99
2017-11-21T03:39:43.962Z,99.99
2017-11-21T03:40:43.952Z,99.99
2017-11-21T03:41:43.945Z,99.99
2017-11-21T03:42:43.676Z,99.99
2017-11-21T03:43:43.920Z,99.99
2017-11-21T03:44:43.908Z,99.99
2017-11-21T03:45:43.645Z,99.99
2017-11-21T03:46:43.633Z,99.99
2017-11-21T03:47:43.878Z,99.99
2017-11-21T03:48:43.869Z,99.99
2017-11-21T03:49:43.603Z,99.99
2017-11-21T03:50:43.856Z,99.99
2017-11-21T03:51:43.582Z,99.99
2017-11-21T03:52:43.825Z,99.99
2017-11-21T03:53:43.818Z,99.99
2017-11-21T03:54:43.818Z,99.99
2017-11-21T03:55:43.900Z,99.99
2017-11-21T03:56:43.794Z,99.99
2017-11-21T03:57:43.775Z,99.99
2017-11-21T03:58:43.771Z,99.99
2017-11-21T03:59:43.753Z,99.99
2017-11-21T04:00:43.755Z,99.99
2017-11-21T04:01:43.584Z,99.99
2017-11-21T04:02:43.728Z,99.99
2017-11-21T04:03:43.455Z,99.99
2017-11-21T04:04:43.707Z,99.99
2017-11-21T04:05:43.690Z,99.99
2017-11-21T04:06:43.427Z,99.99
2017-11-21T04:07:43.672Z,99.99
2017-11-21T04:08:43.661Z,99.99
2017-11-21T04:09:43.396Z,99.99
2017-11-21T04:10:43.383Z,99.99
2017-11-21T04:11:43.633Z,99.99
2017-11-21T04:12:43.624Z,99.99
2017-11-21T04:13:43.354Z,99.99
2017-11-21T04:14:43.698Z,99.99
2017-11-21T04:15:43.334Z,99.99
2017-11-21T04:16:43.585Z,99.99
2017-11-21T04:17:43.585Z,99.99
2017-11-21T04:18:43.412Z,99.99
2017-11-21T04:19:43.548Z,99.99
2017-11-21T04:20:43.540Z,99.99
2017-11-21T04:21:43.631Z,99.99
2017-11-21T04:22:43.515Z,99.99
2017-11-21T04:23:43.254Z,99.99
2017-11-21T04:24:43.498Z,99.99
2017-11-21T04:25:43.231Z,99.99
2017-11-21T04:26:43.422Z,99.99
2017-11-21T04:27:43.467Z,99.99
2017-11-21T04:28:43.465Z,99.99
2017-11-21T04:29:43.453Z,99.99
2017-11-21T04:30:43.436Z,99.99
2017-11-21T04:31:43.426Z,99.99
2017-11-21T04:32:43.415Z,99.99
2017-11-21T04:33:43.505Z,99.99
2017-11-21T04:34:43.138Z,99.99
2017-11-21T04:35:43.383Z,99.99
2017-11-21T04:36:43.116Z,99.99
2017-11-21T04:37:43.379Z,99.99
2017-11-21T04:38:43.355Z,99.99
2017-11-21T04:39:43.342Z,99.99
2017-11-21T04:40:43.437Z,99.99
2017-11-21T04:41:43.328Z,99.99
2017-11-21T04:42:43.323Z,99.99
2017-11-21T04:43:43.301Z,99.99
2017-11-21T04:44:43.292Z,99.99
2017-11-21T04:45:43.126Z,99.99
2017-11-21T04:46:43.272Z,99.99
2017-11-21T04:47:43.264Z,99.99
2017-11-21T04:48:43.254Z,99.99
2017-11-21T04:49:43.241Z,99.99
2017-11-21T04:50:42.974Z,99.99
2017-11-21T04:51:43.217Z,99.99
2017-11-21T04:52:42.955Z,99.99
2017-11-21T04:53:42.943Z,99.99
2017-11-21T04:54:43.195Z,99.99
2017-11-21T04:55:43.178Z,99.99
2017-11-21T04:56:42.913Z,99.99
2017-11-21T04:57:43.274Z,99.99
2017-11-21T04:58:43.149Z,99.99
2017-11-21T04:59:43.146Z,99.99
2017-11-21T05:00:43.125Z,99.99
2017-11-21T05:01:43.121Z,99.99
2017-11-21T05:02:43.108Z,99.99
2017-11-21T05:03:43.094Z,99.99
2017-11-21T05:04:43.092Z,99.99
2017-11-21T05:05:43.079Z,99.99
2017-11-21T05:06:43.064Z,99.99
2017-11-21T05:07:43.076Z,99.99
2017-11-21T05:08:43.048Z,99.99
2017-11-21T05:09:42.779Z,99.99
2017-11-21T05:10:43.022Z,99.99
2017-11-21T05:11:43.114Z,99.99
2017-11-21T05:12:42.747Z,99.99
2017-11-21T05:13:43.096Z,99.99
2017-11-21T05:14:42.726Z,99.99
2017-11-21T05:15:42.715Z,99.99
2017-11-21T05:16:42.964Z,99.99
2017-11-21T05:17:42.953Z,99.99
2017-11-21T05:18:42.684Z,99.99
2017-11-21T05:19:42.968Z,99.99
2017-11-21T05:20:42.933Z,99.99
2017-11-21T05:21:42.653Z,99.99
2017-11-21T05:22:42.643Z,99.99
2017-11-21T05:23:42.891Z,99.99
2017-11-21T05:24:42.883Z,99.99
2017-11-21T05:25:42.877Z,99.99
2017-11-21T05:26:42.859Z,99.99
2017-11-21T05:27:42.857Z,99.99
2017-11-21T05:28:42.584Z,99.99
2017-11-21T05:29:42.840Z,99.99
2017-11-21T05:30:42.919Z,99.99
2017-11-21T05:31:42.909Z,99.99
2017-11-21T05:32:42.800Z,99.99
2017-11-21T05:33:42.531Z,99.99
2017-11-21T05:34:42.524Z,99.99
2017-11-21T05:35:42.512Z,99.99
2017-11-21T05:36:42.761Z,99.99
2017-11-21T05:37:42.489Z,99.99
2017-11-21T05:38:42.739Z,99.99
2017-11-21T05:39:42.472Z,99.99
2017-11-21T05:40:42.717Z,99.99
2017-11-21T05:41:42.451Z,99.99
2017-11-21T05:42:42.697Z,99.99
2017-11-21T05:43:42.688Z,99.99
2017-11-21T05:44:42.675Z,99.99
2017-11-21T05:45:42.668Z,99.99
2017-11-21T05:46:42.399Z,99.99
2017-11-21T05:47:42.649Z,99.99
2017-11-21T05:48:42.633Z,99.99
2017-11-21T05:49:42.623Z,99.99
2017-11-21T05:50:42.618Z,99.99
2017-11-21T05:51:42.347Z,99.99
2017-11-21T05:52:42.608Z,99.99
2017-11-21T05:53:42.586Z,99.99
2017-11-21T05:54:42.576Z,99.99
2017-11-21T05:55:42.574Z,99.99
2017-11-21T05:56:42.553Z,99.99
2017-11-21T05:57:42.287Z,99.99
2017-11-21T05:58:42.535Z,99.99
2017-11-21T05:59:42.267Z,99.99
2017-11-21T06:00:42.517Z,99.99
2017-11-21T06:01:42.502Z,99.99
2017-11-21T06:02:42.236Z,99.99
2017-11-21T06:03:42.482Z,99.99
2017-11-21T06:04:42.471Z,99.99
2017-11-21T06:05:42.461Z,99.99
2017-11-21T06:06:42.462Z,99.99
2017-11-21T06:07:42.441Z,99.99
2017-11-21T06:08:42.432Z,99.99
2017-11-21T06:09:42.419Z,99.99
2017-11-21T06:10:42.509Z,99.99
2017-11-21T06:11:42.143Z,99.99
2017-11-21T06:12:42.133Z,99.99
2017-11-21T06:13:42.383Z,99.99
2017-11-21T06:14:42.114Z,99.99
2017-11-21T06:15:42.361Z,99.99
2017-11-21T06:16:42.358Z,99.99
2017-11-21T06:17:42.363Z,99.99
2017-11-21T06:18:42.329Z,99.99
2017-11-21T06:19:42.063Z,99.99
2017-11-21T06:20:42.416Z,99.99
2017-11-21T06:21:42.302Z,99.99
2017-11-21T06:22:42.295Z,99.99
2017-11-21T06:23:42.283Z,99.99
2017-11-21T06:24:42.273Z,99.99
2017-11-21T06:25:42.261Z,99.99
2017-11-21T06:26:42.254Z,99.99
2017-11-21T06:27:42.251Z,99.99
2017-11-21T06:28:41.976Z,99.99
2017-11-21T06:29:42.221Z,99.99
2017-11-21T06:30:41.953Z,99.99
2017-11-21T06:31:41.942Z,99.99
2017-11-21T06:32:42.193Z,99.99
2017-11-21T06:33:41.924Z,99.99
2017-11-21T06:34:42.186Z,99.99
2017-11-21T06:35:42.164Z,99.99
2017-11-21T06:36:42.146Z,99.99
2017-11-21T06:37:41.881Z,99.99
2017-11-21T06:38:41.871Z,99.99
2017-11-21T06:39:42.115Z,99.99
2017-11-21T06:40:42.107Z,99.99
2017-11-21T06:41:42.107Z,99.99
2017-11-21T06:42:41.832Z,99.99
2017-11-21T06:43:41.825Z,99.99
2017-11-21T06:44:42.069Z,99.99
2017-11-21T06:45:42.061Z,99.99
2017-11-21T06:46:41.791Z,99.99
2017-11-21T06:47:42.037Z,99.99
2017-11-21T06:48:42.023Z,99.99
2017-11-21T06:49:42.129Z,99.99
2017-11-21T06:50:41.751Z,99.99
2017-11-21T06:51:41.995Z,99.99
2017-11-21T06:52:41.990Z,99.99
2017-11-21T06:53:41.973Z,99.99
2017-11-21T06:54:41.710Z,99.99
2017-11-21T06:55:41.958Z,99.99
2017-11-21T06:56:41.947Z,99.99
2017-11-21T06:57:41.934Z,99.99
2017-11-21T06:58:41.922Z,99.99
2017-11-21T06:59:41.914Z,99.99
2017-11-21T07:00:41.907Z,99.99
2017-11-21T07:01:41.892Z,99.99
2017-11-21T07:02:41.886Z,99.99
2017-11-21T07:03:41.873Z,99.99
2017-11-21T07:04:41.608Z,99.99
2017-11-21T07:05:41.595Z,99.99
2017-11-21T07:06:41.842Z,99.99
2017-11-21T07:07:41.835Z,99.99
2017-11-21T07:08:41.824Z,99.99
2017-11-21T07:09:41.567Z,99.99
2017-11-21T07:10:41.547Z,99.99
2017-11-21T07:11:41.814Z,99.99
2017-11-21T07:12:41.789Z,99.99
2017-11-21T07:13:41.521Z,99.99
2017-11-21T07:14:41.775Z,99.99
2017-11-21T07:15:41.495Z,99.99
2017-11-21T07:16:41.741Z,99.99
2017-11-21T07:17:41.736Z,99.99
2017-11-21T07:18:41.568Z,99.99
2017-11-21T07:19:41.714Z,99.99
2017-11-21T07:20:41.450Z,99.99
2017-11-21T07:21:41.441Z,99.99
2017-11-21T07:22:41.682Z,99.99
2017-11-21T07:23:41.673Z,99.99
2017-11-21T07:24:41.407Z,99.99
2017-11-21T07:25:41.395Z,99.99
2017-11-21T07:26:41.385Z,99.99
2017-11-21T07:27:41.632Z,99.99
2017-11-21T07:28:41.628Z,99.99
2017-11-21T07:29:41.616Z,99.99
2017-11-21T07:30:41.601Z,99.99
2017-11-21T07:31:41.604Z,99.99
2017-11-21T07:32:41.581Z,99.99
2017-11-21T07:33:41.674Z,99.99
2017-11-21T07:34:41.568Z,99.99
2017-11-21T07:35:41.296Z,99.99
2017-11-21T07:36:41.542Z,99.99
2017-11-21T07:37:41.530Z,99.99
2017-11-21T07:38:41.265Z,99.99
2017-11-21T07:39:41.511Z,99.99
2017-11-21T07:40:41.511Z,99.99
2017-11-21T07:41:41.490Z,99.99
2017-11-21T07:42:41.483Z,99.99
2017-11-21T07:43:41.495Z,99.99
2017-11-21T07:44:41.464Z,99.99
2017-11-21T07:45:41.451Z,99.99
2017-11-21T07:46:41.474Z,99.99
2017-11-21T07:47:41.539Z,99.99
2017-11-21T07:48:41.427Z,99.99
2017-11-21T07:49:41.412Z,99.99
2017-11-21T07:50:41.400Z,99.99
2017-11-21T07:51:41.418Z,99.99
2017-11-21T07:52:41.383Z,99.99
2017-11-21T07:53:41.374Z,99.99
2017-11-21T07:54:41.364Z,99.99
2017-11-21T07:55:41.451Z,99.99
2017-11-21T07:56:41.351Z,99.99
2017-11-21T07:57:41.078Z,99.99
2017-11-21T07:58:41.328Z,99.99
2017-11-21T07:59:41.311Z,99.99
2017-11-21T08:00:41.045Z,99.99
2017-11-21T08:01:41.294Z,99.99
2017-11-21T08:02:41.301Z,99.99
2017-11-21T08:03:41.017Z,99.99
2017-11-21T08:04:41.270Z,99.99
2017-11-21T08:05:41.255Z,99.99
2017-11-21T08:06:41.243Z,99.99
2017-11-21T08:07:41.234Z,99.99
2017-11-21T08:08:40.964Z,99.99
2017-11-21T08:09:40.957Z,99.99
2017-11-21T08:10:41.205Z,99.99
2017-11-21T08:11:41.193Z,99.99
2017-11-21T08:12:41.190Z,99.99
2017-11-21T08:13:41.176Z,99.99
2017-11-21T08:14:41.162Z,99.99
2017-11-21T08:15:41.254Z,99.99
2017-11-21T08:16:41.239Z,99.99
2017-11-21T08:17:41.136Z,99.99
2017-11-21T08:18:41.122Z,99.99
2017-11-21T08:19:41.111Z,99.99
2017-11-21T08:20:41.102Z,99.99
2017-11-21T08:21:41.095Z,99.99
2017-11-21T08:22:40.832Z,99.99
2017-11-21T08:23:41.073Z,99.99
2017-11-21T08:24:41.066Z,99.99
2017-11-21T08:25:41.154Z,99.99
2017-11-21T08:26:41.043Z,99.99
2017-11-21T08:27:41.051Z,99.99
2017-11-21T08:28:41.024Z,99.99
2017-11-21T08:29:41.016Z,99.99
2017-11-21T08:30:40.747Z,99.99
2017-11-21T08:31:40.996Z,99.99
2017-11-21T08:32:40.979Z,99.99
2017-11-21T08:33:40.975Z,99.99
2017-11-21T08:34:40.962Z,99.99
2017-11-21T08:35:40.698Z,99.99
2017-11-21T08:36:40.954Z,99.99
2017-11-21T08:37:41.066Z,99.99
2017-11-21T08:38:40.984Z,99.99
2017-11-21T08:39:40.915Z,99.99
2017-11-21T08:40:40.906Z,99.99
2017-11-21T08:41:40.897Z,99.99
2017-11-21T08:42:40.635Z,99.99
2017-11-21T08:43:40.617Z,99.99
2017-11-21T08:44:40.863Z,99.99
2017-11-21T08:45:40.860Z,99.99
2017-11-21T08:46:40.846Z,99.99
2017-11-21T08:47:40.578Z,99.99
2017-11-21T08:48:40.824Z,99.99
2017-11-21T08:49:40.815Z,99.99
2017-11-21T08:50:40.907Z,99.99
2017-11-21T08:51:40.794Z,99.99
2017-11-21T08:52:40.791Z,99.99
2017-11-21T08:53:40.815Z,99.99
2017-11-21T08:54:40.512Z,99.99
2017-11-21T08:55:40.498Z,99.99
2017-11-21T08:56:40.490Z,99.99
2017-11-21T08:57:40.734Z,99.99
2017-11-21T08:58:40.473Z,99.99
2017-11-21T08:59:40.722Z,99.99
2017-11-21T09:00:40.711Z,99.99
2017-11-21T09:01:40.700Z,99.99
2017-11-21T09:02:40.687Z,99.99
2017-11-21T09:03:40.782Z,99.99
2017-11-21T09:04:40.772Z,99.99
2017-11-21T09:05:40.656Z,99.99
2017-11-21T09:06:41.054Z,99.99
2017-11-21T09:07:40.635Z,99.99
2017-11-21T09:08:40.738Z,99.99
2017-11-21T09:09:40.616Z,99.99
2017-11-21T09:10:40.611Z,99.99
2017-11-21T09:11:40.602Z,99.99
2017-11-21T09:12:40.585Z,99.99
2017-11-21T09:13:40.576Z,99.99
2017-11-21T09:14:40.568Z,99.99
2017-11-21T09:15:40.562Z,99.99
2017-11-21T09:16:40.547Z,99.99
2017-11-21T09:17:40.283Z,99.99
2017-11-21T09:18:40.527Z,99.99
2017-11-21T09:19:40.264Z,99.99
2017-11-21T09:20:40.507Z,99.78
2017-11-21T09:21:40.498Z,99.59
2017-11-21T09:22:40.233Z,98.93
2017-11-21T09:23:40.220Z,98.83
2017-11-21T09:24:40.469Z,99.02
2017-11-21T09:25:40.463Z,98.36
2017-11-21T09:26:40.452Z,98.26
2017-11-21T09:27:40.444Z,97.69
2017-11-21T09:28:40.431Z,97.5
2017-11-21T09:29:40.427Z,96.93
2017-11-21T09:30:40.412Z,96.74
2017-11-21T09:31:40.146Z,95.98
2017-11-21T09:32:40.401Z,95.98
2017-11-21T09:33:40.392Z,95.32
2017-11-21T09:34:40.374Z,95.03
2017-11-21T09:35:40.364Z,94.56
2017-11-21T09:36:40.361Z,94.65
2017-11-21T09:37:40.346Z,95.03
2017-11-21T09:38:40.082Z,94.65
2017-11-21T09:39:40.349Z,93.89
2017-11-21T09:40:40.322Z,94.18
2017-11-21T09:41:40.314Z,94.27
2017-11-21T09:42:40.300Z,94.08
2017-11-21T09:43:40.291Z,94.27
2017-11-21T09:44:40.281Z,93.99
2017-11-21T09:45:40.398Z,94.27
2017-11-21T09:46:40.003Z,93.99
2017-11-21T09:47:39.992Z,94.93
2017-11-21T09:48:40.241Z,94.93
2017-11-21T09:49:40.236Z,94.74
2017-11-21T09:50:40.219Z,94.37
2017-11-21T09:51:40.212Z,94.27
2017-11-21T09:52:40.199Z,94.84
2017-11-21T09:53:40.194Z,94.93
2017-11-21T09:54:40.384Z,94.74
2017-11-21T09:55:39.916Z,95.12
2017-11-21T09:56:40.162Z,93.99
2017-11-21T09:57:40.153Z,93.99
2017-11-21T09:58:40.149Z,94.08
2017-11-21T09:59:40.144Z,94.65
2017-11-21T10:00:40.135Z,94.56
2017-11-21T10:01:39.856Z,95.41
2017-11-21T10:02:40.106Z,95.03
2017-11-21T10:03:40.092Z,95.22
2017-11-21T10:04:40.084Z,95.6
2017-11-21T10:05:39.816Z,95.89
2017-11-21T10:06:40.067Z,96.08
2017-11-21T10:07:39.796Z,96.36
2017-11-21T10:08:39.789Z,96.17
2017-11-21T10:09:40.036Z,96.36
2017-11-21T10:10:40.026Z,96.55
2017-11-21T10:11:39.756Z,96.84
2017-11-21T10:12:40.003Z,97.31
2017-11-21T10:13:39.999Z,97.22
2017-11-21T10:14:39.727Z,97.31
2017-11-21T10:15:39.975Z,96.93
2017-11-21T10:16:39.969Z,96.93
2017-11-21T10:17:39.700Z,96.93
2017-11-21T10:18:39.950Z,96.17
2017-11-21T10:19:39.958Z,96.08
2017-11-21T10:20:39.925Z,95.41
2017-11-21T10:21:39.660Z,95.41
2017-11-21T10:22:39.909Z,95.32
2017-11-21T10:23:39.641Z,95.32
2017-11-21T10:24:39.895Z,95.32
2017-11-21T10:25:39.888Z,95.98
2017-11-21T10:26:39.865Z,95.98
2017-11-21T10:27:39.857Z,95.32
2017-11-21T10:28:39.606Z,96.08
2017-11-21T10:29:39.579Z,95.7
2017-11-21T10:30:39.571Z,95.79
2017-11-21T10:31:39.820Z,95.7
2017-11-21T10:32:39.823Z,96.55
2017-11-21T10:33:39.800Z,96.45
2017-11-21T10:34:39.535Z,96.17
2017-11-21T10:35:39.786Z,96.17
2017-11-21T10:36:39.771Z,96.17
2017-11-21T10:37:39.502Z,96.17
2017-11-21T10:38:39.494Z,96.26
2017-11-21T10:39:39.742Z,96.36
2017-11-21T10:40:39.729Z,96.93
2017-11-21T10:41:39.464Z,97.03
2017-11-21T10:42:39.722Z,96.84
2017-11-21T10:43:39.705Z,96.74
2017-11-21T10:44:39.696Z,96.98
2017-11-21T10:45:39.428Z,96.45
2017-11-21T10:46:39.416Z,96.93
2017-11-21T10:47:39.662Z,96.89
2017-11-21T10:48:39.396Z,96.41
2017-11-21T10:49:39.387Z,96.22
2017-11-21T10:50:39.655Z,96.41
2017-11-21T10:51:39.365Z,96.6
2017-11-21T10:52:39.621Z,95.6
2017-11-21T10:53:39.605Z,96.03
2017-11-21T10:54:39.346Z,96.22
2017-11-21T10:55:39.328Z,96.12
2017-11-21T10:56:39.596Z,95.36
2017-11-21T10:57:39.308Z,95.36
2017-11-21T10:58:39.557Z,95.08
2017-11-21T10:59:39.290Z,95.46
2017-11-21T11:00:39.538Z,95.17
2017-11-21T11:01:39.527Z,94.03
2017-11-21T11:02:39.518Z,94.32
2017-11-21T11:03:39.508Z,93.75
2017-11-21T11:04:39.504Z,93.55
2017-11-21T11:05:39.232Z,93.65
2017-11-21T11:06:39.480Z,93.94
2017-11-21T11:07:39.469Z,93.37
2017-11-21T11:08:39.202Z,93.18
2017-11-21T11:09:39.452Z,93.08
2017-11-21T11:10:39.182Z,92.89
2017-11-21T11:11:39.431Z,92.99
2017-11-21T11:12:39.468Z,93.18
2017-11-21T11:13:39.151Z,92.99
2017-11-21T11:14:39.406Z,92.99
2017-11-21T11:15:39.411Z,93.46
2017-11-21T11:16:39.483Z,92.8
2017-11-21T11:17:39.116Z,93.27
2017-11-21T11:18:39.373Z,92.99
2017-11-21T11:19:39.101Z,93.18
2017-11-21T11:20:39.459Z,93.08
2017-11-21T11:21:39.076Z,93.55
2017-11-21T11:22:39.067Z,93.75
2017-11-21T11:23:39.316Z,94.13
2017-11-21T11:24:39.309Z,93.94
2017-11-21T11:25:39.138Z,93.65
2017-11-21T11:26:39.031Z,93.84
2017-11-21T11:27:39.018Z,93.75
2017-11-21T11:28:39.011Z,94.42
2017-11-21T11:29:39.258Z,94.22
2017-11-21T11:30:39.091Z,94.13
2017-11-21T11:31:39.239Z,94.51
2017-11-21T11:32:39.230Z,94.32
2017-11-21T11:33:38.964Z,94.42
2017-11-21T11:34:39.212Z,94.51
2017-11-21T11:35:39.197Z,94.22
2017-11-21T11:36:39.193Z,94.03
2017-11-21T11:37:39.179Z,94.03
2017-11-21T11:38:39.171Z,93.55
2017-11-21T11:39:39.157Z,93.18
2017-11-21T11:40:39.149Z,93.18
2017-11-21T11:41:39.141Z,93.08
2017-11-21T11:42:38.874Z,93.18
2017-11-21T11:43:39.151Z,93.13
2017-11-21T11:44:39.111Z,92.56
2017-11-21T11:45:39.113Z,92.36
2017-11-21T11:46:39.090Z,92.75
2017-11-21T11:47:38.823Z,92.18
2017-11-21T11:48:39.073Z,92.18
2017-11-21T11:49:39.066Z,92.18
2017-11-21T11:50:38.796Z,92.46
2017-11-21T11:51:39.049Z,91.89
2017-11-21T11:52:39.046Z,92.08
2017-11-21T11:53:38.768Z,91.7
2017-11-21T11:54:39.020Z,91.99
2017-11-21T11:55:38.748Z,92.08
2017-11-21T11:56:38.997Z,91.89
2017-11-21T11:57:38.988Z,91.8
2017-11-21T11:58:38.974Z,92.18
2017-11-21T11:59:38.975Z,92.18
2017-11-21T12:00:38.958Z,92.18
2017-11-21T12:01:38.692Z,91.7
2017-11-21T12:02:38.941Z,90.94
2017-11-21T12:03:38.673Z,90.94
2017-11-21T12:04:38.965Z,91.13
2017-11-21T12:05:38.652Z,91.42
2017-11-21T12:06:38.909Z,91.13
2017-11-21T12:07:38.892Z,90.94
2017-11-21T12:08:38.884Z,91.42
2017-11-21T12:09:38.869Z,91.03
2017-11-21T12:10:38.864Z,91.42
2017-11-21T12:11:38.853Z,91.03
2017-11-21T12:12:38.844Z,91.22
2017-11-21T12:13:38.576Z,91.32
2017-11-21T12:14:38.569Z,91.22
2017-11-21T12:15:38.818Z,91.32
2017-11-21T12:16:38.850Z,91.8
2017-11-21T12:17:38.541Z,91.7
2017-11-21T12:18:38.790Z,91.99
2017-11-21T12:19:38.519Z,91.84
2017-11-21T12:20:38.770Z,91.32
2017-11-21T12:21:38.756Z,91.42
2017-11-21T12:22:38.749Z,90.94
2017-11-21T12:23:38.781Z,91.22
2017-11-21T12:24:38.732Z,91.27
2017-11-21T12:25:38.731Z,90.75
2017-11-21T12:26:38.450Z,90.51
2017-11-21T12:27:38.699Z,90.18
2017-11-21T12:28:38.702Z,89.61
2017-11-21T12:29:38.688Z,89.47
2017-11-21T12:30:38.675Z,89.99
2017-11-21T12:31:38.668Z,90.13
2017-11-21T12:32:38.655Z,90.03
2017-11-21T12:33:38.650Z,89.84
2017-11-21T12:34:38.645Z,89.65
2017-11-21T12:35:38.628Z,89.75
2017-11-21T12:36:38.616Z,89.84
2017-11-21T12:37:38.352Z,89.18
2017-11-21T12:38:38.599Z,88.42
2017-11-21T12:39:38.332Z,88.23
2017-11-21T12:40:38.580Z,88.89
2017-11-21T12:41:38.574Z,88.42
2017-11-21T12:42:38.301Z,88.32
2017-11-21T12:43:38.294Z,87.85
2017-11-21T12:44:38.285Z,87.65
2017-11-21T12:45:38.277Z,87.37
2017-11-21T12:46:38.526Z,87.37
2017-11-21T12:47:38.257Z,87.46
2017-11-21T12:48:38.515Z,87.37
2017-11-21T12:49:38.499Z,87.85
2017-11-21T12:50:38.488Z,87.27
2017-11-21T12:51:38.495Z,87.65
2017-11-21T12:52:38.209Z,87.27
2017-11-21T12:53:38.201Z,87.56